Weather at Base ULM de Fontaine les Clerval

Public forecast

Using degrees Celsius for public forecast. Weather courtesy of forecast.io.

Closest aviation weather report (METAR) to Base ULM de Fontaine les Clerval

Closest report is Luxeuil-Saint-Sauveur (BA 116) Air Base, 22.1 nm (40.9 km) N. Retrieved 2020/09/23 00:30 UTC (0 seconds ago):

LFSX 230030Z AUTO 22005KT 9999 BKN015/// BKN027/// OVC032/// ///CB 18/15 Q1011

Closest aviation forecast (TAF) to Base ULM de Fontaine les Clerval

Closest forecast is Luxeuil-Saint-Sauveur (BA 116) Air Base, 22.1 nm (40.9 km) N. Retrieved 2020/09/22 22:06 UTC (2 hours ago):

TAF LFSX 222202Z 2222/2321 CNL